Natoma, Kansas
Current Conditions -  °F | °C
As of 5:53 AM on Friday 21 Nov 2014 (Local Time) from KRSL Reporting Station
Clear Clear  
Wind Chill: 17°   Ceiling: Unl
Heat Index: 23°   Visibility: 10mi
Dew Point: 19°   Wind: 5mph
Humidity: 85%   Direction: 50°NE
Pressure: 30.09"   Gusts: NA
Location:  39.19°N, 99.03°W
Report Text: KRSL 211153Z AUTO 05004KT 10SM CLR M05/M07 A3009 RMK AO2 SLP209 T10501072 11011 21067 58007
Loading
Personal Weather Stations






























Interactive Weather Map New forecast layout! Learn more

10-Day Weather Forecast

Advertisements
Track Severe Weather on mobile